sensor_id;sensor_type;location;lat;lon;timestamp;temperature;humidity
12309;DHT22;6217;48.150;17.142;2023-06-10T00:02:03;19.10;97.80
12309;DHT22;6217;48.150;17.142;2023-06-10T00:06:09;19.10;97.90
12309;DHT22;6217;48.150;17.142;2023-06-10T00:10:15;19.10;97.80
12309;DHT22;6217;48.150;17.142;2023-06-10T00:14:21;19.10;97.80
12309;DHT22;6217;48.150;17.142;2023-06-10T00:18:27;19.10;97.90
12309;DHT22;6217;48.150;17.142;2023-06-10T00:22:34;19.00;97.90
12309;DHT22;6217;48.150;17.142;2023-06-10T00:26:41;19.00;98.10
12309;DHT22;6217;48.150;17.142;2023-06-10T00:30:47;18.90;98.20
12309;DHT22;6217;48.150;17.142;2023-06-10T00:34:53;19.00;98.30
12309;DHT22;6217;48.150;17.142;2023-06-10T00:38:59;19.00;98.40
12309;DHT22;6217;48.150;17.142;2023-06-10T00:43:05;19.10;98.30
12309;DHT22;6217;48.150;17.142;2023-06-10T00:47:11;19.00;98.40
12309;DHT22;6217;48.150;17.142;2023-06-10T00:51:18;19.00;98.40
12309;DHT22;6217;48.150;17.142;2023-06-10T00:55:24;19.10;98.40
12309;DHT22;6217;48.150;17.142;2023-06-10T00:59:32;19.00;98.40
12309;DHT22;6217;48.150;17.142;2023-06-10T01:03:39;19.00;98.50
12309;DHT22;6217;48.150;17.142;2023-06-10T01:08:07;19.00;98.50
12309;DHT22;6217;48.150;17.142;2023-06-10T01:12:31;19.00;98.60
12309;DHT22;6217;48.150;17.142;2023-06-10T01:16:39;19.00;98.60
12309;DHT22;6217;48.150;17.142;2023-06-10T01:20:46;19.00;98.60
12309;DHT22;6217;48.150;17.142;2023-06-10T01:24:56;19.00;98.60
12309;DHT22;6217;48.150;17.142;2023-06-10T01:29:18;19.00;98.60
12309;DHT22;6217;48.150;17.142;2023-06-10T01:33:28;18.90;98.60
12309;DHT22;6217;48.150;17.142;2023-06-10T01:37:39;18.90;98.70
12309;DHT22;6217;48.150;17.142;2023-06-10T01:41:47;19.00;98.70
12309;DHT22;6217;48.150;17.142;2023-06-10T01:45:54;19.00;98.70
12309;DHT22;6217;48.150;17.142;2023-06-10T01:50:00;19.00;98.70
12309;DHT22;6217;48.150;17.142;2023-06-10T01:54:07;18.90;98.70
12309;DHT22;6217;48.150;17.142;2023-06-10T01:58:13;18.90;98.90
12309;DHT22;6217;48.150;17.142;2023-06-10T02:02:19;18.90;98.90
12309;DHT22;6217;48.150;17.142;2023-06-10T02:06:27;18.90;98.90
12309;DHT22;6217;48.150;17.142;2023-06-10T02:10:33;18.90;98.90
12309;DHT22;6217;48.150;17.142;2023-06-10T02:14:39;18.90;98.90
12309;DHT22;6217;48.150;17.142;2023-06-10T02:18:45;18.90;99.00
12309;DHT22;6217;48.150;17.142;2023-06-10T02:22:52;18.90;99.00
12309;DHT22;6217;48.150;17.142;2023-06-10T02:26:58;18.90;99.00
12309;DHT22;6217;48.150;17.142;2023-06-10T02:31:06;18.90;99.00
12309;DHT22;6217;48.150;17.142;2023-06-10T02:35:12;18.80;99.20
12309;DHT22;6217;48.150;17.142;2023-06-10T02:39:18;18.90;99.10
12309;DHT22;6217;48.150;17.142;2023-06-10T02:43:26;18.80;99.20
12309;DHT22;6217;48.150;17.142;2023-06-10T02:47:32;18.90;99.30
12309;DHT22;6217;48.150;17.142;2023-06-10T02:51:39;18.80;99.10
12309;DHT22;6217;48.150;17.142;2023-06-10T02:55:46;18.80;99.30
12309;DHT22;6217;48.150;17.142;2023-06-10T02:59:54;18.80;99.30
12309;DHT22;6217;48.150;17.142;2023-06-10T03:04:01;18.80;99.20
12309;DHT22;6217;48.150;17.142;2023-06-10T03:08:08;18.70;99.20
12309;DHT22;6217;48.150;17.142;2023-06-10T03:12:17;18.70;99.30
12309;DHT22;6217;48.150;17.142;2023-06-10T03:16:27;18.70;99.30
12309;DHT22;6217;48.150;17.142;2023-06-10T03:20:33;18.80;99.30
12309;DHT22;6217;48.150;17.142;2023-06-10T03:24:43;18.80;99.60
12309;DHT22;6217;48.150;17.142;2023-06-10T03:28:50;18.80;99.30
12309;DHT22;6217;48.150;17.142;2023-06-10T03:32:56;18.80;99.20
12309;DHT22;6217;48.150;17.142;2023-06-10T03:37:05;18.80;99.20
12309;DHT22;6217;48.150;17.142;2023-06-10T03:41:12;18.80;99.30
12309;DHT22;6217;48.150;17.142;2023-06-10T03:45:20;18.80;99.30
12309;DHT22;6217;48.150;17.142;2023-06-10T03:49:26;18.90;99.40
12309;DHT22;6217;48.150;17.142;2023-06-10T03:53:37;18.90;99.40
12309;DHT22;6217;48.150;17.142;2023-06-10T03:57:43;18.90;99.40
12309;DHT22;6217;48.150;17.142;2023-06-10T04:01:50;19.00;99.30
12309;DHT22;6217;48.150;17.142;2023-06-10T04:05:56;19.00;99.30
12309;DHT22;6217;48.150;17.142;2023-06-10T04:10:05;19.00;99.30
12309;DHT22;6217;48.150;17.142;2023-06-10T04:14:12;19.00;99.30
12309;DHT22;6217;48.150;17.142;2023-06-10T04:18:20;19.00;99.30
12309;DHT22;6217;48.150;17.142;2023-06-10T04:22:27;19.00;99.30
12309;DHT22;6217;48.150;17.142;2023-06-10T04:26:35;19.10;99.40
12309;DHT22;6217;48.150;17.142;2023-06-10T04:30:41;19.40;99.60
12309;DHT22;6217;48.150;17.142;2023-06-10T04:34:48;19.70;99.50
12309;DHT22;6217;48.150;17.142;2023-06-10T04:38:55;19.80;99.20
12309;DHT22;6217;48.150;17.142;2023-06-10T04:43:02;20.00;99.00
12309;DHT22;6217;48.150;17.142;2023-06-10T04:47:08;20.10;98.80
12309;DHT22;6217;48.150;17.142;2023-06-10T04:51:15;20.20;98.60
12309;DHT22;6217;48.150;17.142;2023-06-10T04:55:20;20.20;98.60
12309;DHT22;6217;48.150;17.142;2023-06-10T04:59:27;20.40;98.70
12309;DHT22;6217;48.150;17.142;2023-06-10T05:03:33;20.50;98.50
12309;DHT22;6217;48.150;17.142;2023-06-10T05:07:38;20.60;98.20
12309;DHT22;6217;48.150;17.142;2023-06-10T05:11:44;20.60;97.80
12309;DHT22;6217;48.150;17.142;2023-06-10T05:15:50;20.60;97.80
12309;DHT22;6217;48.150;17.142;2023-06-10T05:19:56;20.90;97.80
12309;DHT22;6217;48.150;17.142;2023-06-10T05:24:02;21.10;97.70
12309;DHT22;6217;48.150;17.142;2023-06-10T05:28:08;21.10;97.50
12309;DHT22;6217;48.150;17.142;2023-06-10T05:32:15;21.20;97.20
12309;DHT22;6217;48.150;17.142;2023-06-10T05:36:21;21.10;96.90
12309;DHT22;6217;48.150;17.142;2023-06-10T05:40:27;21.00;96.90
12309;DHT22;6217;48.150;17.142;2023-06-10T05:44:33;20.90;97.00
12309;DHT22;6217;48.150;17.142;2023-06-10T05:48:39;20.70;96.90
12309;DHT22;6217;48.150;17.142;2023-06-10T05:52:45;20.60;96.90
12309;DHT22;6217;48.150;17.142;2023-06-10T05:56:51;20.60;97.10
12309;DHT22;6217;48.150;17.142;2023-06-10T06:00:57;20.70;97.50
12309;DHT22;6217;48.150;17.142;2023-06-10T06:05:03;21.00;97.50
12309;DHT22;6217;48.150;17.142;2023-06-10T06:09:10;21.40;97.30
12309;DHT22;6217;48.150;17.142;2023-06-10T06:13:16;21.70;97.00
12309;DHT22;6217;48.150;17.142;2023-06-10T06:17:22;22.20;96.90
12309;DHT22;6217;48.150;17.142;2023-06-10T06:21:28;22.90;96.40
12309;DHT22;6217;48.150;17.142;2023-06-10T06:25:33;23.30;95.60
12309;DHT22;6217;48.150;17.142;2023-06-10T06:29:41;23.20;94.90
12309;DHT22;6217;48.150;17.142;2023-06-10T06:33:47;23.20;94.80
12309;DHT22;6217;48.150;17.142;2023-06-10T06:37:53;23.10;94.50
12309;DHT22;6217;48.150;17.142;2023-06-10T06:42:05;23.00;94.30
12309;DHT22;6217;48.150;17.142;2023-06-10T06:46:26;22.80;94.20
12309;DHT22;6217;48.150;17.142;2023-06-10T06:50:35;22.70;94.20
12309;DHT22;6217;48.150;17.142;2023-06-10T06:54:41;22.80;93.80
12309;DHT22;6217;48.150;17.142;2023-06-10T06:58:47;22.50;93.80
12309;DHT22;6217;48.150;17.142;2023-06-10T07:02:55;22.50;93.90
12309;DHT22;6217;48.150;17.142;2023-06-10T07:07:01;22.60;93.70
12309;DHT22;6217;48.150;17.142;2023-06-10T07:11:07;22.40;94.00
12309;DHT22;6217;48.150;17.142;2023-06-10T07:15:13;22.70;94.20
12309;DHT22;6217;48.150;17.142;2023-06-10T07:19:19;22.90;93.90
12309;DHT22;6217;48.150;17.142;2023-06-10T07:23:25;22.90;93.50
12309;DHT22;6217;48.150;17.142;2023-06-10T07:27:31;22.80;93.50
12309;DHT22;6217;48.150;17.142;2023-06-10T07:31:37;22.70;93.40
12309;DHT22;6217;48.150;17.142;2023-06-10T07:35:44;22.70;93.40
12309;DHT22;6217;48.150;17.142;2023-06-10T07:39:50;22.60;93.40
12309;DHT22;6217;48.150;17.142;2023-06-10T07:43:56;22.60;93.30
12309;DHT22;6217;48.150;17.142;2023-06-10T07:48:02;22.50;93.40
12309;DHT22;6217;48.150;17.142;2023-06-10T07:52:08;22.50;93.40
12309;DHT22;6217;48.150;17.142;2023-06-10T07:56:14;22.50;93.40
12309;DHT22;6217;48.150;17.142;2023-06-10T08:00:21;22.50;93.30
12309;DHT22;6217;48.150;17.142;2023-06-10T08:04:28;22.40;93.40
12309;DHT22;6217;48.150;17.142;2023-06-10T08:08:37;22.60;93.40
12309;DHT22;6217;48.150;17.142;2023-06-10T08:12:50;22.70;93.40
12309;DHT22;6217;48.150;17.142;2023-06-10T08:16:58;22.80;93.10
12309;DHT22;6217;48.150;17.142;2023-06-10T08:21:07;23.00;93.10
12309;DHT22;6217;48.150;17.142;2023-06-10T08:25:14;23.10;92.80
12309;DHT22;6217;48.150;17.142;2023-06-10T08:29:21;23.20;92.60
12309;DHT22;6217;48.150;17.142;2023-06-10T08:33:27;23.30;92.20
12309;DHT22;6217;48.150;17.142;2023-06-10T08:37:35;23.40;92.00
12309;DHT22;6217;48.150;17.142;2023-06-10T08:41:43;23.50;91.90
12309;DHT22;6217;48.150;17.142;2023-06-10T08:46:00;23.50;91.80
12309;DHT22;6217;48.150;17.142;2023-06-10T08:50:10;23.30;91.70
12309;DHT22;6217;48.150;17.142;2023-06-10T08:54:21;23.20;91.80
12309;DHT22;6217;48.150;17.142;2023-06-10T08:58:28;23.00;92.00
12309;DHT22;6217;48.150;17.142;2023-06-10T09:02:36;22.90;91.90
12309;DHT22;6217;48.150;17.142;2023-06-10T09:06:45;22.90;92.10
12309;DHT22;6217;48.150;17.142;2023-06-10T09:10:53;22.90;92.00
12309;DHT22;6217;48.150;17.142;2023-06-10T09:15:00;22.70;92.00
12309;DHT22;6217;48.150;17.142;2023-06-10T09:19:08;22.60;92.10
12309;DHT22;6217;48.150;17.142;2023-06-10T09:23:15;22.80;92.50
12309;DHT22;6217;48.150;17.142;2023-06-10T09:27:24;23.00;92.30
12309;DHT22;6217;48.150;17.142;2023-06-10T09:31:35;23.30;92.10
12309;DHT22;6217;48.150;17.142;2023-06-10T09:35:48;23.50;91.60
12309;DHT22;6217;48.150;17.142;2023-06-10T09:40:06;23.40;91.50
12309;DHT22;6217;48.150;17.142;2023-06-10T09:44:17;23.40;91.30
12309;DHT22;6217;48.150;17.142;2023-06-10T09:48:27;23.50;91.30
12309;DHT22;6217;48.150;17.142;2023-06-10T09:52:33;23.70;90.90
12309;DHT22;6217;48.150;17.142;2023-06-10T09:56:41;23.70;90.70
12309;DHT22;6217;48.150;17.142;2023-06-10T10:00:52;23.70;90.60
12309;DHT22;6217;48.150;17.142;2023-06-10T10:05:04;23.60;90.60
12309;DHT22;6217;48.150;17.142;2023-06-10T10:09:14;23.50;90.70
12309;DHT22;6217;48.150;17.142;2023-06-10T10:13:24;23.40;91.00
12309;DHT22;6217;48.150;17.142;2023-06-10T10:17:34;23.30;90.90
12309;DHT22;6217;48.150;17.142;2023-06-10T10:21:47;23.30;90.90
12309;DHT22;6217;48.150;17.142;2023-06-10T10:26:00;23.20;91.00
12309;DHT22;6217;48.150;17.142;2023-06-10T10:30:14;23.10;91.20
12309;DHT22;6217;48.150;17.142;2023-06-10T10:34:33;23.10;91.60
12309;DHT22;6217;48.150;17.142;2023-06-10T10:38:42;23.20;91.60
12309;DHT22;6217;48.150;17.142;2023-06-10T10:42:49;23.30;91.60
12309;DHT22;6217;48.150;17.142;2023-06-10T10:47:03;23.40;91.40
12309;DHT22;6217;48.150;17.142;2023-06-10T10:51:15;23.50;91.20
12309;DHT22;6217;48.150;17.142;2023-06-10T10:55:24;23.60;91.00
12309;DHT22;6217;48.150;17.142;2023-06-10T11:03:57;23.80;91.30
12309;DHT22;6217;48.150;17.142;2023-06-10T11:08:05;24.00;91.20
12309;DHT22;6217;48.150;17.142;2023-06-10T11:12:22;24.20;90.90
12309;DHT22;6217;48.150;17.142;2023-06-10T11:16:41;24.40;90.80
12309;DHT22;6217;48.150;17.142;2023-06-10T11:24:58;24.60;90.20
12309;DHT22;6217;48.150;17.142;2023-06-10T11:29:08;24.60;89.70
12309;DHT22;6217;48.150;17.142;2023-06-10T11:33:17;24.70;88.80
12309;DHT22;6217;48.150;17.142;2023-06-10T11:37:24;24.80;88.20
12309;DHT22;6217;48.150;17.142;2023-06-10T11:41:33;24.80;88.50
12309;DHT22;6217;48.150;17.142;2023-06-10T11:45:41;24.60;88.80
12309;DHT22;6217;48.150;17.142;2023-06-10T11:49:56;24.70;89.40
12309;DHT22;6217;48.150;17.142;2023-06-10T11:54:05;25.00;89.60
12309;DHT22;6217;48.150;17.142;2023-06-10T11:58:20;25.10;88.30
12309;DHT22;6217;48.150;17.142;2023-06-10T12:02:28;25.20;87.50
12309;DHT22;6217;48.150;17.142;2023-06-10T12:06:54;25.20;87.40
12309;DHT22;6217;48.150;17.142;2023-06-10T12:11:02;25.10;87.20
12309;DHT22;6217;48.150;17.142;2023-06-10T12:15:10;25.00;87.50
12309;DHT22;6217;48.150;17.142;2023-06-10T12:19:18;24.90;87.30
12309;DHT22;6217;48.150;17.142;2023-06-10T12:23:25;24.90;86.70
12309;DHT22;6217;48.150;17.142;2023-06-10T12:27:33;24.80;86.20
12309;DHT22;6217;48.150;17.142;2023-06-10T12:36:16;24.40;86.30
12309;DHT22;6217;48.150;17.142;2023-06-10T12:40:29;24.20;87.60
12309;DHT22;6217;48.150;17.142;2023-06-10T12:44:40;24.20;88.70
12309;DHT22;6217;48.150;17.142;2023-06-10T12:48:54;24.20;89.30
12309;DHT22;6217;48.150;17.142;2023-06-10T12:53:03;24.30;89.30
12309;DHT22;6217;48.150;17.142;2023-06-10T12:57:10;24.30;89.80
12309;DHT22;6217;48.150;17.142;2023-06-10T13:01:18;24.30;90.00
12309;DHT22;6217;48.150;17.142;2023-06-10T13:05:25;24.10;90.30
12309;DHT22;6217;48.150;17.142;2023-06-10T13:09:33;24.10;90.40
12309;DHT22;6217;48.150;17.142;2023-06-10T13:13:39;24.00;90.60
12309;DHT22;6217;48.150;17.142;2023-06-10T13:17:46;24.00;90.70
12309;DHT22;6217;48.150;17.142;2023-06-10T13:21:57;24.00;90.70
12309;DHT22;6217;48.150;17.142;2023-06-10T13:26:05;24.10;90.80
12309;DHT22;6217;48.150;17.142;2023-06-10T13:30:11;24.10;90.80
12309;DHT22;6217;48.150;17.142;2023-06-10T13:34:20;24.20;91.00
12309;DHT22;6217;48.150;17.142;2023-06-10T13:38:27;24.30;91.00
12309;DHT22;6217;48.150;17.142;2023-06-10T13:42:33;24.50;90.80
12309;DHT22;6217;48.150;17.142;2023-06-10T13:46:43;24.60;90.50
12309;DHT22;6217;48.150;17.142;2023-06-10T13:50:51;24.60;90.20
12309;DHT22;6217;48.150;17.142;2023-06-10T13:54:57;24.70;90.00
12309;DHT22;6217;48.150;17.142;2023-06-10T13:59:03;24.70;89.50
12309;DHT22;6217;48.150;17.142;2023-06-10T14:03:10;24.60;89.80
12309;DHT22;6217;48.150;17.142;2023-06-10T14:07:16;24.40;90.30
12309;DHT22;6217;48.150;17.142;2023-06-10T14:11:22;24.40;90.60
12309;DHT22;6217;48.150;17.142;2023-06-10T14:15:28;24.40;90.70
12309;DHT22;6217;48.150;17.142;2023-06-10T14:19:34;24.50;90.90
12309;DHT22;6217;48.150;17.142;2023-06-10T14:23:42;24.60;90.80
12309;DHT22;6217;48.150;17.142;2023-06-10T14:27:52;24.70;90.30
12309;DHT22;6217;48.150;17.142;2023-06-10T14:31:58;24.70;90.00
12309;DHT22;6217;48.150;17.142;2023-06-10T14:36:05;24.80;89.90
12309;DHT22;6217;48.150;17.142;2023-06-10T14:40:11;24.90;89.50
12309;DHT22;6217;48.150;17.142;2023-06-10T14:44:17;24.90;89.60
12309;DHT22;6217;48.150;17.142;2023-06-10T14:48:23;25.10;89.30
12309;DHT22;6217;48.150;17.142;2023-06-10T14:52:29;25.20;89.00
12309;DHT22;6217;48.150;17.142;2023-06-10T14:56:35;25.30;88.50
12309;DHT22;6217;48.150;17.142;2023-06-10T15:00:41;25.40;88.00
12309;DHT22;6217;48.150;17.142;2023-06-10T15:04:47;25.40;87.70
12309;DHT22;6217;48.150;17.142;2023-06-10T15:08:54;25.30;88.30
12309;DHT22;6217;48.150;17.142;2023-06-10T15:13:00;25.10;87.30
12309;DHT22;6217;48.150;17.142;2023-06-10T15:17:06;24.90;86.70
12309;DHT22;6217;48.150;17.142;2023-06-10T15:21:12;24.60;86.60
12309;DHT22;6217;48.150;17.142;2023-06-10T15:25:21;24.50;86.60
12309;DHT22;6217;48.150;17.142;2023-06-10T15:29:29;24.10;86.60
12309;DHT22;6217;48.150;17.142;2023-06-10T15:33:36;23.60;87.20
12309;DHT22;6217;48.150;17.142;2023-06-10T15:37:42;23.20;86.70
12309;DHT22;6217;48.150;17.142;2023-06-10T15:41:50;22.70;86.80
12309;DHT22;6217;48.150;17.142;2023-06-10T15:45:56;22.30;87.90
12309;DHT22;6217;48.150;17.142;2023-06-10T15:50:04;21.90;89.30
12309;DHT22;6217;48.150;17.142;2023-06-10T15:54:12;21.60;90.20
12309;DHT22;6217;48.150;17.142;2023-06-10T15:58:19;21.30;90.60
12309;DHT22;6217;48.150;17.142;2023-06-10T16:02:27;21.10;91.10
12309;DHT22;6217;48.150;17.142;2023-06-10T16:06:36;21.00;91.40
12309;DHT22;6217;48.150;17.142;2023-06-10T16:10:42;20.90;91.50
12309;DHT22;6217;48.150;17.142;2023-06-10T16:14:48;20.90;91.60
12309;DHT22;6217;48.150;17.142;2023-06-10T16:18:56;20.80;91.90
12309;DHT22;6217;48.150;17.142;2023-06-10T16:23:04;20.80;92.00
12309;DHT22;6217;48.150;17.142;2023-06-10T16:27:12;20.80;92.20
12309;DHT22;6217;48.150;17.142;2023-06-10T16:31:18;20.90;92.30
12309;DHT22;6217;48.150;17.142;2023-06-10T16:35:24;21.00;92.40
12309;DHT22;6217;48.150;17.142;2023-06-10T16:39:30;20.90;92.50
12309;DHT22;6217;48.150;17.142;2023-06-10T16:43:36;21.00;92.60
12309;DHT22;6217;48.150;17.142;2023-06-10T16:47:42;21.00;92.70
12309;DHT22;6217;48.150;17.142;2023-06-10T16:51:48;21.10;92.80
12309;DHT22;6217;48.150;17.142;2023-06-10T16:55:54;21.10;92.80
12309;DHT22;6217;48.150;17.142;2023-06-10T17:00:00;21.20;92.80
12309;DHT22;6217;48.150;17.142;2023-06-10T17:04:06;21.30;92.90
12309;DHT22;6217;48.150;17.142;2023-06-10T17:08:12;21.30;93.00
12309;DHT22;6217;48.150;17.142;2023-06-10T17:12:18;21.40;93.20
12309;DHT22;6217;48.150;17.142;2023-06-10T17:16:28;21.40;93.40
12309;DHT22;6217;48.150;17.142;2023-06-10T17:20:33;21.50;93.60
12309;DHT22;6217;48.150;17.142;2023-06-10T17:24:39;21.40;93.80
12309;DHT22;6217;48.150;17.142;2023-06-10T17:28:47;21.40;94.00
12309;DHT22;6217;48.150;17.142;2023-06-10T17:32:53;21.40;94.20
12309;DHT22;6217;48.150;17.142;2023-06-10T17:37:00;21.30;94.30
12309;DHT22;6217;48.150;17.142;2023-06-10T17:41:07;21.30;94.50
12309;DHT22;6217;48.150;17.142;2023-06-10T17:45:14;21.30;94.60
12309;DHT22;6217;48.150;17.142;2023-06-10T17:49:20;21.30;94.80
12309;DHT22;6217;48.150;17.142;2023-06-10T17:53:29;21.30;94.90
12309;DHT22;6217;48.150;17.142;2023-06-10T17:57:35;21.20;95.00
12309;DHT22;6217;48.150;17.142;2023-06-10T18:01:41;21.10;95.00
12309;DHT22;6217;48.150;17.142;2023-06-10T18:05:47;21.10;95.10
12309;DHT22;6217;48.150;17.142;2023-06-10T18:09:53;21.10;95.10
12309;DHT22;6217;48.150;17.142;2023-06-10T18:13:59;21.10;95.20
12309;DHT22;6217;48.150;17.142;2023-06-10T18:18:05;21.10;95.30
12309;DHT22;6217;48.150;17.142;2023-06-10T18:22:11;21.00;95.50
12309;DHT22;6217;48.150;17.142;2023-06-10T18:26:17;21.00;95.60
12309;DHT22;6217;48.150;17.142;2023-06-10T18:30:23;20.90;95.70
12309;DHT22;6217;48.150;17.142;2023-06-10T18:34:29;21.00;95.80
12309;DHT22;6217;48.150;17.142;2023-06-10T18:38:35;21.00;95.70
12309;DHT22;6217;48.150;17.142;2023-06-10T18:42:41;21.00;95.60
12309;DHT22;6217;48.150;17.142;2023-06-10T18:46:47;21.00;95.60
12309;DHT22;6217;48.150;17.142;2023-06-10T18:50:54;21.00;95.60
12309;DHT22;6217;48.150;17.142;2023-06-10T18:55:00;21.00;95.70
12309;DHT22;6217;48.150;17.142;2023-06-10T18:59:05;21.00;95.80
12309;DHT22;6217;48.150;17.142;2023-06-10T19:03:11;20.90;95.90
12309;DHT22;6217;48.150;17.142;2023-06-10T19:07:17;20.90;96.00
12309;DHT22;6217;48.150;17.142;2023-06-10T19:11:23;20.90;96.10
12309;DHT22;6217;48.150;17.142;2023-06-10T19:15:30;20.90;96.20
12309;DHT22;6217;48.150;17.142;2023-06-10T19:19:36;20.90;96.60
12309;DHT22;6217;48.150;17.142;2023-06-10T19:23:42;20.80;96.30
12309;DHT22;6217;48.150;17.142;2023-06-10T19:27:48;20.80;96.50
12309;DHT22;6217;48.150;17.142;2023-06-10T19:31:54;20.80;96.60
12309;DHT22;6217;48.150;17.142;2023-06-10T19:36:00;20.80;96.80
12309;DHT22;6217;48.150;17.142;2023-06-10T19:40:07;20.90;96.40
12309;DHT22;6217;48.150;17.142;2023-06-10T19:44:13;20.90;96.30
12309;DHT22;6217;48.150;17.142;2023-06-10T19:48:19;20.90;96.20
12309;DHT22;6217;48.150;17.142;2023-06-10T19:52:26;21.00;96.10
12309;DHT22;6217;48.150;17.142;2023-06-10T19:56:32;21.00;96.10
12309;DHT22;6217;48.150;17.142;2023-06-10T20:00:38;21.00;96.00
12309;DHT22;6217;48.150;17.142;2023-06-10T20:04:44;21.00;95.90
12309;DHT22;6217;48.150;17.142;2023-06-10T20:08:50;21.10;95.80
12309;DHT22;6217;48.150;17.142;2023-06-10T20:12:56;21.10;95.70
12309;DHT22;6217;48.150;17.142;2023-06-10T20:17:02;21.10;95.60
12309;DHT22;6217;48.150;17.142;2023-06-10T20:21:08;21.00;95.50
12309;DHT22;6217;48.150;17.142;2023-06-10T20:25:14;21.00;95.50
12309;DHT22;6217;48.150;17.142;2023-06-10T20:29:20;21.00;95.50
12309;DHT22;6217;48.150;17.142;2023-06-10T20:33:27;21.00;95.50
12309;DHT22;6217;48.150;17.142;2023-06-10T20:37:33;21.00;95.50
12309;DHT22;6217;48.150;17.142;2023-06-10T20:41:39;21.00;95.40
12309;DHT22;6217;48.150;17.142;2023-06-10T20:45:44;21.00;95.30
12309;DHT22;6217;48.150;17.142;2023-06-10T20:49:51;21.00;95.20
12309;DHT22;6217;48.150;17.142;2023-06-10T20:53:57;21.00;95.20
12309;DHT22;6217;48.150;17.142;2023-06-10T20:58:02;21.00;95.20
12309;DHT22;6217;48.150;17.142;2023-06-10T21:02:09;21.00;95.00
12309;DHT22;6217;48.150;17.142;2023-06-10T21:06:15;21.00;95.00
12309;DHT22;6217;48.150;17.142;2023-06-10T21:10:21;20.90;94.90
12309;DHT22;6217;48.150;17.142;2023-06-10T21:14:27;20.90;94.90
12309;DHT22;6217;48.150;17.142;2023-06-10T21:18:33;20.90;95.00
12309;DHT22;6217;48.150;17.142;2023-06-10T21:22:38;20.90;95.10
12309;DHT22;6217;48.150;17.142;2023-06-10T21:26:44;20.90;95.10
12309;DHT22;6217;48.150;17.142;2023-06-10T21:30:50;20.80;95.10
12309;DHT22;6217;48.150;17.142;2023-06-10T21:34:56;20.80;95.00
12309;DHT22;6217;48.150;17.142;2023-06-10T21:39:02;20.80;94.90
12309;DHT22;6217;48.150;17.142;2023-06-10T21:43:09;20.90;94.90
12309;DHT22;6217;48.150;17.142;2023-06-10T21:47:15;20.90;94.90
12309;DHT22;6217;48.150;17.142;2023-06-10T21:51:21;20.80;95.00
12309;DHT22;6217;48.150;17.142;2023-06-10T21:55:26;20.70;95.00
12309;DHT22;6217;48.150;17.142;2023-06-10T21:59:32;20.70;95.20
12309;DHT22;6217;48.150;17.142;2023-06-10T22:03:39;20.70;95.20
12309;DHT22;6217;48.150;17.142;2023-06-10T22:07:45;20.70;95.30
12309;DHT22;6217;48.150;17.142;2023-06-10T22:11:51;20.70;95.30
12309;DHT22;6217;48.150;17.142;2023-06-10T22:15:57;20.60;95.30
12309;DHT22;6217;48.150;17.142;2023-06-10T22:20:03;20.60;95.30
12309;DHT22;6217;48.150;17.142;2023-06-10T22:24:10;20.50;95.30
12309;DHT22;6217;48.150;17.142;2023-06-10T22:28:16;20.60;95.30
12309;DHT22;6217;48.150;17.142;2023-06-10T22:32:22;20.60;95.20
12309;DHT22;6217;48.150;17.142;2023-06-10T22:36:28;20.60;95.10
12309;DHT22;6217;48.150;17.142;2023-06-10T22:40:34;20.60;94.90
12309;DHT22;6217;48.150;17.142;2023-06-10T22:44:39;20.70;94.80
12309;DHT22;6217;48.150;17.142;2023-06-10T22:48:45;20.70;94.60
12309;DHT22;6217;48.150;17.142;2023-06-10T22:52:52;20.80;94.60
12309;DHT22;6217;48.150;17.142;2023-06-10T22:56:58;20.70;94.70
12309;DHT22;6217;48.150;17.142;2023-06-10T23:01:04;20.70;94.80
12309;DHT22;6217;48.150;17.142;2023-06-10T23:05:10;20.70;94.90
12309;DHT22;6217;48.150;17.142;2023-06-10T23:09:16;20.60;95.00
12309;DHT22;6217;48.150;17.142;2023-06-10T23:13:22;20.50;95.10
12309;DHT22;6217;48.150;17.142;2023-06-10T23:17:28;20.50;95.20
12309;DHT22;6217;48.150;17.142;2023-06-10T23:21:35;20.40;95.20
12309;DHT22;6217;48.150;17.142;2023-06-10T23:25:41;20.40;95.30
12309;DHT22;6217;48.150;17.142;2023-06-10T23:29:50;20.30;95.40
12309;DHT22;6217;48.150;17.142;2023-06-10T23:33:56;20.30;95.50
12309;DHT22;6217;48.150;17.142;2023-06-10T23:38:03;20.30;95.50
12309;DHT22;6217;48.150;17.142;2023-06-10T23:42:09;20.20;95.50
12309;DHT22;6217;48.150;17.142;2023-06-10T23:46:15;20.20;95.50
12309;DHT22;6217;48.150;17.142;2023-06-10T23:50:21;20.10;95.50
12309;DHT22;6217;48.150;17.142;2023-06-10T23:54:27;20.10;95.60
12309;DHT22;6217;48.150;17.142;2023-06-10T23:58:33;20.10;95.70
